createdAt,value
2023-01-23T00:02:09.271Z,10.10
2023-01-23T00:07:12.674Z,10.10
2023-01-23T00:12:17.346Z,10.10
2023-01-23T00:17:20.755Z,10.10
2023-01-23T00:22:24.141Z,10.10
2023-01-23T00:27:29.000Z,10.10
2023-01-23T00:32:32.327Z,10.10
2023-01-23T00:37:38.509Z,10.10
2023-01-23T00:42:43.297Z,10.10
2023-01-23T00:47:46.662Z,10.10
2023-01-23T00:52:49.972Z,10.10
2023-01-23T00:57:55.227Z,10.10
2023-01-23T01:02:58.963Z,10.10
2023-01-23T01:08:02.417Z,10.00
2023-01-23T01:13:07.221Z,10.00
2023-01-23T01:18:10.583Z,10.00
2023-01-23T01:23:14.412Z,10.10
2023-01-23T01:28:19.268Z,10.10
2023-01-23T01:33:25.842Z,10.10
2023-01-23T01:38:29.876Z,10.10
2023-01-23T01:43:36.340Z,10.10
2023-01-23T01:48:45.499Z,10.20
2023-01-23T01:53:55.713Z,10.20
2023-01-23T01:59:01.587Z,10.20
2023-01-23T02:04:06.228Z,10.20
2023-01-23T02:09:16.998Z,10.20
2023-01-23T02:14:24.545Z,10.20
2023-01-23T02:19:39.898Z,10.20
2023-01-23T02:24:49.956Z,10.10
2023-01-23T02:29:57.466Z,10.20
2023-01-23T02:35:12.457Z,10.20
2023-01-23T02:40:17.478Z,10.20
2023-01-23T02:45:22.768Z,10.10
2023-01-23T02:50:26.948Z,10.10
2023-01-23T02:55:31.730Z,10.10
2023-01-23T03:00:36.832Z,10.10
2023-01-23T03:05:40.349Z,10.10
2023-01-23T03:10:44.211Z,10.10
2023-01-23T03:15:53.123Z,10.10
2023-01-23T03:20:56.587Z,10.10
2023-01-23T03:26:00.348Z,10.20
2023-01-23T03:31:08.401Z,10.20
2023-01-23T03:36:13.114Z,10.20
2023-01-23T03:41:28.990Z,10.20
2023-01-23T03:46:39.811Z,10.30
2023-01-23T03:51:43.595Z,10.30
2023-01-23T03:56:47.725Z,10.30
2023-01-23T04:02:13.251Z,10.30
2023-01-23T04:07:16.770Z,10.30
2023-01-23T04:12:21.732Z,10.30
2023-01-23T04:17:27.227Z,10.30
2023-01-23T04:22:30.624Z,10.20
2023-01-23T04:27:34.566Z,10.20
2023-01-23T04:32:40.285Z,10.20
2023-01-23T04:37:44.734Z,10.20
2023-01-23T04:42:48.341Z,10.20
2023-01-23T04:48:12.727Z,10.20
2023-01-23T04:53:16.434Z,10.20
2023-01-23T04:58:21.412Z,10.20
2023-01-23T05:03:26.712Z,10.20
2023-01-23T05:08:30.236Z,10.20
2023-01-23T05:13:55.231Z,10.20
2023-01-23T05:19:01.592Z,10.20
2023-01-23T05:24:07.791Z,10.10
2023-01-23T05:29:11.538Z,10.20
2023-01-23T05:34:26.272Z,10.10
2023-01-23T05:39:32.590Z,10.20
2023-01-23T05:44:37.007Z,10.10
2023-01-23T05:49:47.062Z,10.10
2023-01-23T05:54:50.566Z,10.00
2023-01-23T05:59:54.740Z,10.00
2023-01-23T06:05:19.656Z,10.00
2023-01-23T06:10:39.938Z,10.10
2023-01-23T06:15:43.721Z,10.10
2023-01-23T06:20:50.084Z,10.20
2023-01-23T06:25:54.188Z,10.30
2023-01-23T06:31:02.384Z,10.40
2023-01-23T06:36:16.159Z,10.40
2023-01-23T06:41:20.098Z,10.40
2023-01-23T06:46:29.631Z,10.40
2023-01-23T06:51:35.744Z,10.40
2023-01-23T06:56:40.111Z,10.40
2023-01-23T07:01:45.966Z,10.30
2023-01-23T07:06:56.304Z,10.30
2023-01-23T07:12:01.165Z,10.30
2023-01-23T07:17:06.824Z,10.30
2023-01-23T07:22:14.035Z,10.30
2023-01-23T07:27:17.663Z,10.20
2023-01-23T07:32:21.030Z,10.20
2023-01-23T07:37:26.328Z,10.20
2023-01-23T07:42:29.947Z,10.20
2023-01-23T07:47:58.997Z,10.20
2023-01-23T07:53:04.340Z,10.20
2023-01-23T07:58:07.777Z,10.20
2023-01-23T08:03:11.231Z,10.30
2023-01-23T08:08:16.053Z,10.30
2023-01-23T08:13:19.443Z,10.30
2023-01-23T08:18:22.966Z,10.30
2023-01-23T08:23:28.847Z,10.30
2023-01-23T08:28:32.577Z,10.30
2023-01-23T08:33:36.776Z,10.30
2023-01-23T08:38:43.222Z,10.40
2023-01-23T08:43:46.838Z,10.40
2023-01-23T08:48:50.252Z,10.40
2023-01-23T08:53:55.199Z,10.40
2023-01-23T08:58:59.163Z,10.40
2023-01-23T09:04:02.538Z,10.40
2023-01-23T09:09:07.591Z,10.40
2023-01-23T09:14:11.414Z,10.40
2023-01-23T09:19:15.931Z,10.40
2023-01-23T09:24:20.804Z,10.40
2023-01-23T09:29:24.572Z,10.50
2023-01-23T09:34:28.341Z,10.50
2023-01-23T09:39:33.211Z,10.40
2023-01-23T09:44:40.975Z,10.40
2023-01-23T09:49:51.078Z,10.40
2023-01-23T09:55:02.734Z,10.50
2023-01-23T10:00:12.232Z,10.50
2023-01-23T10:05:17.003Z,10.50
2023-01-23T10:11:03.066Z,10.60
2023-01-23T10:16:19.930Z,10.60
2023-01-23T10:21:29.899Z,10.60
2023-01-23T10:26:39.879Z,10.70
2023-01-23T10:31:47.426Z,10.70
2023-01-23T10:37:06.828Z,10.70
2023-01-23T10:42:13.671Z,10.70
2023-01-23T10:47:22.578Z,10.80
2023-01-23T10:52:33.028Z,10.80
2023-01-23T10:57:48.560Z,10.80
2023-01-23T11:02:52.499Z,10.90
2023-01-23T11:07:56.635Z,10.90
2023-01-23T11:13:03.697Z,10.90
2023-01-23T11:18:31.352Z,11.00
2023-01-23T11:23:35.711Z,11.00
2023-01-23T11:28:51.603Z,11.00
2023-01-23T11:34:00.216Z,11.00
2023-01-23T11:39:13.413Z,11.00
2023-01-23T11:44:21.130Z,11.00
2023-01-23T11:49:39.661Z,11.00
2023-01-23T11:55:04.356Z,11.00
2023-01-23T12:00:30.467Z,11.00
2023-01-23T12:06:20.269Z,11.10
2023-01-23T12:11:25.679Z,11.10
2023-01-23T12:16:48.434Z,11.10
2023-01-23T12:22:01.477Z,11.10
2023-01-23T12:27:13.541Z,11.10
2023-01-23T12:32:37.110Z,11.10
2023-01-23T12:38:00.694Z,11.10
2023-01-23T12:43:11.574Z,11.20
2023-01-23T12:48:21.106Z,11.20
2023-01-23T12:53:24.934Z,11.30
2023-01-23T12:58:31.359Z,11.30
2023-01-23T13:03:55.548Z,11.30
2023-01-23T13:09:17.423Z,11.30
2023-01-23T13:14:32.773Z,11.30
2023-01-23T13:20:01.167Z,11.30
2023-01-23T13:25:13.236Z,11.30
2023-01-23T13:30:41.093Z,11.30
2023-01-23T13:35:56.214Z,11.30
2023-01-23T13:41:31.365Z,11.40
2023-01-23T14:25:18.981Z,11.50
2023-01-23T14:30:27.253Z,11.60
2023-01-23T14:35:33.153Z,11.60
2023-01-23T14:40:50.722Z,11.60
2023-01-23T14:46:01.989Z,11.60
2023-01-23T14:51:20.288Z,11.60
2023-01-23T14:56:28.915Z,11.70
2023-01-23T15:01:35.362Z,11.70
2023-01-23T15:06:39.512Z,11.70
2023-01-23T15:11:45.262Z,11.70
2023-01-23T15:16:49.082Z,11.80
2023-01-23T15:22:05.531Z,11.80
2023-01-23T15:27:25.593Z,11.80
2023-01-23T15:32:29.160Z,11.80
2023-01-23T15:37:33.212Z,11.90
2023-01-23T15:42:38.189Z,11.90
2023-01-23T15:47:41.626Z,11.90
2023-01-23T15:52:49.946Z,11.90
2023-01-23T15:57:55.210Z,11.90
2023-01-23T16:03:00.561Z,12.00
2023-01-23T16:08:05.838Z,12.00
2023-01-23T16:13:14.815Z,12.00
2023-01-23T16:18:18.904Z,12.00
2023-01-23T16:23:24.867Z,12.00
2023-01-23T16:28:30.783Z,12.00
2023-01-23T16:33:34.301Z,12.00
2023-01-23T16:38:37.931Z,12.00
2023-01-23T16:43:43.718Z,12.00
2023-01-23T16:48:50.633Z,12.00
2023-01-23T16:53:56.805Z,11.90
2023-01-23T16:59:03.160Z,11.90
2023-01-23T17:04:07.335Z,12.00
2023-01-23T17:09:13.302Z,12.10
2023-01-23T17:14:22.116Z,12.20
2023-01-23T17:19:32.743Z,12.30
2023-01-23T17:24:37.369Z,12.30
2023-01-23T17:29:42.682Z,12.40
2023-01-23T17:34:50.091Z,12.40
2023-01-23T17:39:55.944Z,12.40
2023-01-23T17:45:01.955Z,12.40
2023-01-23T17:50:09.015Z,12.30
2023-01-23T17:55:16.794Z,12.30
2023-01-23T18:00:24.339Z,12.30
2023-01-23T18:05:29.656Z,12.30
2023-01-23T18:10:36.176Z,12.30
2023-01-23T18:16:00.945Z,12.30
2023-01-23T18:21:08.417Z,12.30
2023-01-23T18:26:27.307Z,12.30
2023-01-23T18:31:41.947Z,12.30
2023-01-23T18:36:58.343Z,12.30
2023-01-23T18:42:17.131Z,12.30
2023-01-23T18:47:26.247Z,12.20
2023-01-23T18:52:45.906Z,12.30
2023-01-23T18:58:06.971Z,12.30
2023-01-23T19:03:17.391Z,12.20
2023-01-23T19:08:32.972Z,12.20
2023-01-23T19:13:47.141Z,12.30
2023-01-23T19:19:14.686Z,12.20
2023-01-23T19:24:21.985Z,12.20
2023-01-23T19:29:28.069Z,12.30
2023-01-23T19:34:38.864Z,12.20
2023-01-23T19:39:45.957Z,12.30
2023-01-23T19:44:51.118Z,12.20
2023-01-23T19:49:57.963Z,12.30
2023-01-23T19:55:03.406Z,12.40
2023-01-23T20:00:10.420Z,12.40
2023-01-23T20:05:19.334Z,12.50
2023-01-23T20:10:25.151Z,12.50
2023-01-23T20:15:31.921Z,12.50
2023-01-23T20:20:38.975Z,12.50
2023-01-23T20:25:44.047Z,12.50
2023-01-23T20:30:48.705Z,12.50
2023-01-23T20:35:58.235Z,12.40
2023-01-23T20:41:08.997Z,12.40
2023-01-23T20:46:14.764Z,12.30
2023-01-23T20:51:21.192Z,12.30
2023-01-23T20:56:29.470Z,12.30
2023-01-23T21:01:56.736Z,12.30
2023-01-23T21:07:04.050Z,12.30
2023-01-23T21:12:09.949Z,12.30
2023-01-23T21:17:16.160Z,12.20
2023-01-23T21:22:21.300Z,12.30
2023-01-23T21:27:32.502Z,12.20
2023-01-23T21:32:36.273Z,12.20
2023-01-23T21:37:45.170Z,12.20
2023-01-23T21:42:48.980Z,12.20
2023-01-23T21:47:52.451Z,12.20
2023-01-23T21:52:57.400Z,12.20
2023-01-23T21:58:01.203Z,12.30
2023-01-23T22:03:05.047Z,12.20
2023-01-23T22:08:10.058Z,12.20
2023-01-23T22:13:13.508Z,12.20
2023-01-23T22:18:16.938Z,12.20
2023-01-23T22:23:21.996Z,12.20
2023-01-23T22:28:25.611Z,12.20
2023-01-23T22:33:39.942Z,12.20
2023-01-23T22:38:45.663Z,12.20
2023-01-23T22:43:54.633Z,12.20
2023-01-23T22:48:58.408Z,12.20
2023-01-23T22:54:06.032Z,12.20
2023-01-23T22:59:10.189Z,12.20
2023-01-23T23:04:13.733Z,12.20
2023-01-23T23:09:18.540Z,12.20
2023-01-23T23:14:22.992Z,12.20
2023-01-23T23:19:26.499Z,12.20
2023-01-23T23:24:31.302Z,12.20
2023-01-23T23:29:34.761Z,12.20
2023-01-23T23:34:38.320Z,12.20
2023-01-23T23:39:43.201Z,12.20
2023-01-23T23:44:46.715Z,12.20
2023-01-23T23:49:50.317Z,12.20
2023-01-23T23:54:55.069Z,12.20
2023-01-23T23:59:58.502Z,12.20
